Time,TemperatureF,DewpointF,PressureIn,WindDirection,WindDirectionDegrees,WindSpeedMPH,WindSpeedGustMPH,Humidity,HourlyPrecipIn,Conditions,Clouds,dailyrainin,SoftwareType,DateUTC
2013-04-25 00:02:00,37.0,36.0,30.24,North,0,0.0,0.0,96,0.00,,,0.13,,2013-04-25 05:02:00,
2013-04-25 00:12:00,37.0,36.0,30.24,North,0,0.0,0.0,96,0.00,,,0.13,,2013-04-25 05:12:00,
2013-04-25 00:21:00,36.0,35.0,30.24,North,0,0.0,0.0,96,0.00,,,0.13,,2013-04-25 05:21:00,
2013-04-25 00:32:00,36.0,35.0,30.24,North,0,0.0,0.0,96,0.00,,,0.13,,2013-04-25 05:32:00,
2013-04-25 00:42:00,36.0,35.0,30.24,North,0,0.0,0.0,96,0.00,,,0.13,,2013-04-25 05:42:00,
2013-04-25 00:52:00,36.0,35.0,30.24,North,0,0.0,0.0,96,0.00,,,0.13,,2013-04-25 05:52:00,
2013-04-25 01:02:00,36.0,35.0,30.25,North,0,0.0,0.0,96,0.00,,,0.13,,2013-04-25 06:02:00,
2013-04-25 01:11:00,36.0,35.0,30.25,North,0,0.0,0.0,96,0.00,,,0.13,,2013-04-25 06:11:00,
2013-04-25 01:22:00,36.0,35.0,30.25,North,0,0.0,0.0,96,0.00,,,0.13,,2013-04-25 06:22:00,
2013-04-25 01:32:00,36.0,35.0,30.24,North,0,0.0,0.0,96,0.00,,,0.13,,2013-04-25 06:32:00,
2013-04-25 01:41:00,36.0,35.0,30.24,North,0,0.0,0.0,96,0.00,,,0.13,,2013-04-25 06:41:00,
2013-04-25 01:52:00,36.0,35.0,30.24,North,0,0.0,0.0,97,0.00,,,0.13,,2013-04-25 06:52:00,
2013-04-25 02:02:00,36.0,35.0,30.24,North,0,0.0,0.0,97,0.00,,,0.13,,2013-04-25 07:02:00,
2013-04-25 02:11:00,36.0,35.0,30.24,North,0,0.0,0.0,97,0.00,,,0.13,,2013-04-25 07:11:00,
2013-04-25 02:22:00,36.0,35.0,30.24,North,0,0.0,0.0,97,0.00,,,0.13,,2013-04-25 07:22:00,
2013-04-25 02:32:00,35.0,34.0,30.24,North,0,0.0,0.0,97,0.00,,,0.13,,2013-04-25 07:32:00,
2013-04-25 02:42:00,35.0,34.0,30.24,North,0,0.0,0.0,97,0.00,,,0.13,,2013-04-25 07:42:00,
2013-04-25 02:52:00,36.0,35.0,30.23,North,0,0.0,0.0,97,0.00,,,0.13,,2013-04-25 07:52:00,
2013-04-25 03:01:00,36.0,35.0,30.23,North,0,0.0,0.0,97,0.00,,,0.13,,2013-04-25 08:01:00,
2013-04-25 03:11:00,36.0,35.0,30.23,North,0,0.0,0.0,97,0.00,,,0.13,,2013-04-25 08:11:00,
2013-04-25 03:21:00,35.0,34.0,30.24,North,0,0.0,0.0,97,0.00,,,0.13,,2013-04-25 08:21:00,
2013-04-25 03:31:00,35.0,34.0,30.24,North,0,0.0,0.0,97,0.00,,,0.13,,2013-04-25 08:31:00,
2013-04-25 03:41:00,35.0,34.0,30.24,North,0,0.0,0.0,97,0.00,,,0.13,,2013-04-25 08:41:00,
2013-04-25 03:52:00,35.0,35.0,30.24,North,0,0.0,0.0,100,0.00,,,0.03,,2013-04-25 08:52:00,
2013-04-25 04:01:00,35.0,35.0,30.24,North,0,0.0,0.0,100,0.00,,,0.00,,2013-04-25 09:01:00,
2013-04-25 04:11:00,35.0,35.0,30.24,North,0,0.0,0.0,100,0.00,,,0.00,,2013-04-25 09:11:00,
2013-04-25 04:21:00,35.0,34.0,30.25,North,0,0.0,0.0,97,0.00,,,0.00,,2013-04-25 09:21:00,
2013-04-25 04:33:00,34.0,34.0,30.25,North,0,0.0,0.0,100,0.00,,,0.00,,2013-04-25 09:33:00,
2013-04-25 04:42:00,34.0,34.0,30.25,North,0,0.0,0.0,100,0.00,,,0.00,,2013-04-25 09:42:00,
2013-04-25 04:52:00,34.0,34.0,30.26,North,0,0.0,0.0,100,0.00,,,0.00,,2013-04-25 09:52:00,
2013-04-25 05:02:00,35.0,35.0,30.26,North,0,0.0,0.0,100,0.00,,,0.00,,2013-04-25 10:02:00,
2013-04-25 05:12:00,35.0,35.0,30.26,North,0,0.0,0.0,100,0.00,,,0.00,,2013-04-25 10:12:00,
2013-04-25 05:22:00,35.0,35.0,30.26,North,0,0.0,0.0,100,0.00,,,0.00,,2013-04-25 10:22:00,
2013-04-25 05:32:00,35.0,35.0,30.27,North,0,0.0,0.0,100,0.00,,,0.00,,2013-04-25 10:32:00,
2013-04-25 05:42:00,35.0,35.0,30.27,North,0,0.0,0.0,100,0.00,,,0.00,,2013-04-25 10:42:00,
2013-04-25 05:52:00,34.0,34.0,30.27,North,0,0.0,0.0,100,0.00,,,0.00,,2013-04-25 10:52:00,
2013-04-25 06:02:00,34.0,34.0,30.27,North,0,0.0,0.0,100,0.00,,,0.00,,2013-04-25 11:02:00,
2013-04-25 06:12:00,34.0,34.0,30.27,North,0,0.0,0.0,100,0.00,,,0.00,,2013-04-25 11:12:00,
2013-04-25 06:22:00,34.0,34.0,30.27,North,0,0.0,0.0,100,0.00,,,0.00,,2013-04-25 11:22:00,
2013-04-25 06:32:00,35.0,35.0,30.28,North,0,0.0,0.0,100,0.00,,,0.00,,2013-04-25 11:32:00,
2013-04-25 06:42:00,35.0,35.0,30.28,North,0,0.0,0.0,100,0.00,,,0.00,,2013-04-25 11:42:00,
2013-04-25 06:52:00,35.0,35.0,30.28,North,0,0.0,0.0,100,0.00,,,0.00,,2013-04-25 11:52:00,
2013-04-25 07:01:00,35.0,35.0,30.29,North,0,0.0,0.0,100,0.00,,,0.00,,2013-04-25 12:01:00,
2013-04-25 07:12:00,35.0,35.0,30.29,North,0,0.0,0.0,100,0.00,,,0.00,,2013-04-25 12:12:00,
2013-04-25 07:21:00,36.0,36.0,30.29,NW,324,0.0,1.0,99,0.00,,,0.00,,2013-04-25 12:21:00,
2013-04-25 07:31:00,37.0,37.0,30.29,North,0,0.0,0.0,100,0.00,,,0.00,,2013-04-25 12:31:00,
2013-04-25 07:42:00,37.0,37.0,30.29,North,0,0.0,0.0,100,0.00,,,0.00,,2013-04-25 12:42:00,
2013-04-25 07:52:00,39.0,39.0,30.31,West,269,0.0,2.0,99,0.00,,,0.00,,2013-04-25 12:52:00,
2013-04-25 08:02:00,40.0,40.0,30.31,SW,232,0.0,2.0,99,0.00,,,0.00,,2013-04-25 13:02:00,
2013-04-25 08:11:00,40.0,40.0,30.31,SW,232,0.0,2.0,99,0.00,,,0.00,,2013-04-25 13:11:00,
2013-04-25 08:21:00,41.0,41.0,30.32,SSW,193,0.0,2.0,99,0.00,,,0.00,,2013-04-25 13:21:00,
2013-04-25 08:31:00,42.0,42.0,30.32,SSW,202,1.0,8.0,99,0.00,,,0.00,,2013-04-25 13:31:00,
2013-04-25 08:42:00,42.0,42.0,30.32,SSW,202,1.0,8.0,99,0.00,,,0.00,,2013-04-25 13:42:00,
2013-04-25 08:52:00,43.0,43.0,30.32,SSW,207,0.0,5.0,99,0.00,,,0.00,,2013-04-25 13:52:00,
2013-04-25 09:01:00,44.0,42.0,30.31,SSE,153,1.0,8.0,92,0.00,,,0.00,,2013-04-25 14:01:00,
2013-04-25 09:11:00,44.0,42.0,30.31,SSE,153,1.0,8.0,92,0.00,,,0.00,,2013-04-25 14:11:00,
2013-04-25 09:21:00,46.0,42.0,30.31,SSE,164,1.0,6.0,85,0.00,,,0.00,,2013-04-25 14:21:00,
2013-04-25 09:32:00,47.0,39.0,30.32,SSW,213,2.0,7.0,75,0.00,,,0.00,,2013-04-25 14:32:00,
2013-04-25 09:42:00,47.0,39.0,30.32,SSW,213,2.0,7.0,75,0.00,,,0.00,,2013-04-25 14:42:00,
2013-04-25 09:51:00,47.0,38.0,30.32,SW,222,2.0,8.0,70,0.00,,,0.00,,2013-04-25 14:51:00,
2013-04-25 10:02:00,49.0,39.0,30.32,West,261,1.0,6.0,69,0.00,,,0.00,,2013-04-25 15:02:00,
2013-04-25 10:11:00,49.0,39.0,30.32,West,261,1.0,6.0,69,0.00,,,0.00,,2013-04-25 15:11:00,
2013-04-25 10:21:00,50.0,38.0,30.32,WSW,256,3.0,11.0,64,0.00,,,0.00,,2013-04-25 15:21:00,
2013-04-25 10:33:00,51.0,40.0,30.32,West,260,2.0,8.0,65,0.00,,,0.00,,2013-04-25 15:33:00,
2013-04-25 10:42:00,51.0,40.0,30.32,West,260,2.0,8.0,65,0.00,,,0.00,,2013-04-25 15:42:00,
2013-04-25 10:52:00,52.0,39.0,30.32,West,264,3.0,8.0,61,0.00,,,0.00,,2013-04-25 15:52:00,
2013-04-25 11:02:00,53.0,39.0,30.32,WSW,238,2.0,10.0,60,0.00,,,0.00,,2013-04-25 16:02:00,
2013-04-25 11:13:00,53.0,39.0,30.32,WSW,238,2.0,10.0,60,0.00,,,0.00,,2013-04-25 16:13:00,
2013-04-25 11:24:00,54.0,40.0,30.32,WSW,252,2.0,7.0,58,0.00,,,0.00,,2013-04-25 16:24:00,
2013-04-25 11:32:00,54.0,39.0,30.32,NW,324,2.0,11.0,56,0.00,,,0.00,,2013-04-25 16:32:00,
2013-04-25 11:42:00,54.0,39.0,30.32,NW,324,2.0,11.0,56,0.00,,,0.00,,2013-04-25 16:42:00,
2013-04-25 11:52:00,56.0,37.0,30.32,WNW,295,2.0,8.0,48,0.00,,,0.00,,2013-04-25 16:52:00,
2013-04-25 12:02:00,56.0,36.0,30.32,WNW,298,2.0,8.0,47,0.00,,,0.00,,2013-04-25 17:02:00,
2013-04-25 12:11:00,56.0,36.0,30.32,WNW,298,2.0,8.0,47,0.00,,,0.00,,2013-04-25 17:11:00,
2013-04-25 12:22:00,56.0,36.0,30.31,NNW,340,2.0,10.0,46,0.00,,,0.00,,2013-04-25 17:22:00,
2013-04-25 12:32:00,56.0,36.0,30.31,NNW,340,2.0,10.0,46,0.00,,,0.00,,2013-04-25 17:32:00,
2013-04-25 12:42:00,56.0,36.0,30.31,NNW,340,2.0,10.0,46,0.00,,,0.00,,2013-04-25 17:42:00,
2013-04-25 12:53:00,56.0,36.0,30.31,NNW,340,2.0,10.0,46,0.00,,,0.00,,2013-04-25 17:53:00,
2013-04-25 13:32:00,60.0,37.0,30.29,NW,322,1.0,8.0,42,0.00,,,0.00,,2013-04-25 18:32:00,
2013-04-25 13:43:00,60.0,37.0,30.29,NW,322,1.0,8.0,42,0.00,,,0.00,,2013-04-25 18:43:00,
2013-04-25 13:53:00,60.0,36.0,30.29,West,270,2.0,6.0,41,0.00,,,0.00,,2013-04-25 18:53:00,
2013-04-25 14:01:00,60.0,37.0,30.29,West,259,2.0,11.0,42,0.00,,,0.00,,2013-04-25 19:01:00,
2013-04-25 14:12:00,60.0,37.0,30.29,West,259,2.0,11.0,42,0.00,,,0.00,,2013-04-25 19:12:00,
2013-04-25 14:21:00,60.0,39.0,30.29,NW,307,1.0,7.0,45,0.00,,,0.00,,2013-04-25 19:21:00,
2013-04-25 14:31:00,61.0,37.0,30.29,NNW,329,1.0,9.0,41,0.00,,,0.00,,2013-04-25 19:31:00,
2013-04-25 14:41:00,61.0,37.0,30.29,NNW,329,1.0,9.0,41,0.00,,,0.00,,2013-04-25 19:41:00,
2013-04-25 14:52:00,62.0,39.0,30.28,West,265,1.0,9.0,42,0.00,,,0.00,,2013-04-25 19:52:00,
2013-04-25 15:01:00,62.0,38.0,30.29,WNW,286,0.0,8.0,41,0.00,,,0.00,,2013-04-25 20:01:00,
2013-04-25 15:11:00,62.0,38.0,30.29,WNW,286,0.0,8.0,41,0.00,,,0.00,,2013-04-25 20:11:00,
2013-04-25 15:22:00,62.0,37.0,30.28,NNW,345,1.0,9.0,40,0.00,,,0.00,,2013-04-25 20:22:00,
2013-04-25 15:32:00,63.0,39.0,30.28,NW,306,1.0,11.0,41,0.00,,,0.00,,2013-04-25 20:32:00,
2013-04-25 15:42:00,63.0,39.0,30.28,NW,306,1.0,11.0,41,0.00,,,0.00,,2013-04-25 20:42:00,
2013-04-25 15:52:00,64.0,40.0,30.27,NW,316,2.0,12.0,42,0.00,,,0.00,,2013-04-25 20:52:00,
2013-04-25 16:01:00,63.0,38.0,30.27,NNW,331,1.0,10.0,40,0.00,,,0.00,,2013-04-25 21:01:00,
2013-04-25 16:11:00,63.0,38.0,30.27,NNW,331,1.0,10.0,40,0.00,,,0.00,,2013-04-25 21:11:00,
2013-04-25 16:21:00,63.0,36.0,30.27,WNW,295,2.0,13.0,37,0.00,,,0.00,,2013-04-25 21:21:00,
2013-04-25 16:33:00,64.0,38.0,30.27,WNW,284,3.0,14.0,38,0.00,,,0.00,,2013-04-25 21:33:00,
2013-04-25 16:42:00,64.0,38.0,30.27,WNW,284,3.0,14.0,38,0.00,,,0.00,,2013-04-25 21:42:00,
2013-04-25 16:52:00,63.0,36.0,30.27,West,277,3.0,11.0,36,0.00,,,0.00,,2013-04-25 21:52:00,
2013-04-25 17:02:00,64.0,37.0,30.26,WNW,286,2.0,10.0,37,0.00,,,0.00,,2013-04-25 22:02:00,
2013-04-25 17:12:00,64.0,37.0,30.26,WNW,286,2.0,10.0,37,0.00,,,0.00,,2013-04-25 22:12:00,
2013-04-25 17:22:00,64.0,37.0,30.26,NW,321,0.0,3.0,36,0.00,,,0.00,,2013-04-25 22:22:00,
2013-04-25 17:33:00,64.0,37.0,30.26,West,275,1.0,7.0,37,0.00,,,0.00,,2013-04-25 22:33:00,
2013-04-25 17:42:00,64.0,37.0,30.26,West,275,1.0,7.0,37,0.00,,,0.00,,2013-04-25 22:42:00,
2013-04-25 17:52:00,64.0,35.0,30.26,West,269,0.0,3.0,34,0.00,,,0.00,,2013-04-25 22:52:00,
2013-04-25 18:02:00,65.0,37.0,30.26,NW,317,0.0,4.0,36,0.00,,,0.00,,2013-04-25 23:02:00,
2013-04-25 18:12:00,65.0,37.0,30.26,NW,317,0.0,4.0,36,0.00,,,0.00,,2013-04-25 23:12:00,
2013-04-25 18:22:00,64.0,35.0,30.26,NNW,345,0.0,2.0,34,0.00,,,0.00,,2013-04-25 23:22:00,
2013-04-25 18:32:00,64.0,35.0,30.26,NNW,347,0.0,1.0,34,0.00,,,0.00,,2013-04-25 23:32:00,
2013-04-25 18:42:00,64.0,35.0,30.26,NNW,347,0.0,1.0,34,0.00,,,0.00,,2013-04-25 23:42:00,
2013-04-25 18:52:00,65.0,37.0,30.25,NNW,347,0.0,1.0,35,0.00,,,0.00,,2013-04-25 23:52:00,
2013-04-25 19:01:00,65.0,37.0,30.27,NNW,347,0.0,1.0,35,0.00,,,0.00,,2013-04-26 00:01:00,
2013-04-25 19:11:00,65.0,37.0,30.27,NNW,347,0.0,1.0,35,0.00,,,0.00,,2013-04-26 00:11:00,
2013-04-25 19:21:00,65.0,37.0,30.27,NNW,347,0.0,1.0,35,0.00,,,0.00,,2013-04-26 00:21:00,
2013-04-25 19:31:00,65.0,37.0,30.27,NNW,347,0.0,1.0,35,0.00,,,0.00,,2013-04-26 00:31:00,
2013-04-25 19:41:00,65.0,37.0,30.27,NNW,347,0.0,1.0,35,0.00,,,0.00,,2013-04-26 00:41:00,
2013-04-25 19:52:00,65.0,37.0,30.27,NNW,347,0.0,1.0,35,0.00,,,0.00,,2013-04-26 00:52:00,
2013-04-25 20:01:00,59.0,44.0,30.27,North,0,0.0,0.0,58,0.00,,,0.00,,2013-04-26 01:01:00,
2013-04-25 20:11:00,59.0,44.0,30.27,North,0,0.0,0.0,58,0.00,,,0.00,,2013-04-26 01:11:00,
2013-04-25 20:21:00,56.0,44.0,30.26,North,0,0.0,0.0,63,0.00,,,0.00,,2013-04-26 01:21:00,
2013-04-25 20:31:00,54.0,42.0,30.26,North,0,0.0,0.0,63,0.00,,,0.00,,2013-04-26 01:31:00,
2013-04-25 20:41:00,54.0,42.0,30.26,North,0,0.0,0.0,63,0.00,,,0.00,,2013-04-26 01:41:00,
2013-04-25 20:52:00,53.0,43.0,30.26,North,0,0.0,0.0,70,0.00,,,0.00,,2013-04-26 01:52:00,
2013-04-25 21:01:00,51.0,41.0,30.27,North,0,0.0,0.0,68,0.00,,,0.00,,2013-04-26 02:01:00,
2013-04-25 21:11:00,51.0,41.0,30.27,North,0,0.0,0.0,68,0.00,,,0.00,,2013-04-26 02:11:00,
2013-04-25 21:21:00,50.0,41.0,30.27,North,0,0.0,0.0,70,0.00,,,0.00,,2013-04-26 02:21:00,
2013-04-25 21:32:00,50.0,42.0,30.29,North,0,0.0,0.0,75,0.00,,,0.00,,2013-04-26 02:32:00,
2013-04-25 21:42:00,50.0,42.0,30.29,North,0,0.0,0.0,75,0.00,,,0.00,,2013-04-26 02:42:00,
2013-04-25 21:51:00,50.0,42.0,30.29,North,0,0.0,0.0,75,0.00,,,0.00,,2013-04-26 02:51:00,
2013-04-25 22:01:00,49.0,43.0,30.29,North,0,0.0,0.0,79,0.00,,,0.00,,2013-04-26 03:01:00,
2013-04-25 22:11:00,49.0,43.0,30.29,North,0,0.0,0.0,79,0.00,,,0.00,,2013-04-26 03:11:00,
2013-04-25 22:21:00,49.0,44.0,30.29,North,0,0.0,0.0,82,0.00,,,0.00,,2013-04-26 03:21:00,
2013-04-25 22:33:00,48.0,44.0,30.29,North,0,0.0,0.0,87,0.00,,,0.00,,2013-04-26 03:33:00,
2013-04-25 22:43:00,48.0,44.0,30.29,North,0,0.0,0.0,87,0.00,,,0.00,,2013-04-26 03:43:00,
2013-04-25 22:53:00,48.0,45.0,30.29,North,0,0.0,0.0,88,0.00,,,0.00,,2013-04-26 03:53:00,
2013-04-25 23:02:00,48.0,45.0,30.29,NNW,345,0.0,1.0,90,0.00,,,0.00,,2013-04-26 04:02:00,
2013-04-25 23:12:00,48.0,45.0,30.29,NNW,345,0.0,1.0,90,0.00,,,0.00,,2013-04-26 04:12:00,
2013-04-25 23:22:00,48.0,45.0,30.29,North,0,0.0,0.0,91,0.00,,,0.00,,2013-04-26 04:22:00,
2013-04-25 23:32:00,48.0,46.0,30.30,North,0,0.0,0.0,92,0.00,,,0.00,,2013-04-26 04:32:00,
2013-04-25 23:43:00,48.0,46.0,30.30,North,0,0.0,0.0,92,0.00,,,0.00,,2013-04-26 04:43:00,
2013-04-25 23:53:00,49.0,43.0,30.29,NE,39,0.0,1.0,80,0.00,,,0.00,,2013-04-26 04:53:00,